sensor_id;sensor_type;location;lat;lon;timestamp;temperature;humidity
66831;DHT22;53739;44.224;22.528;2023-03-05T00:01:12;179.50;6502.40
66831;DHT22;53739;44.224;22.528;2023-03-05T00:03:38;179.50;6502.40
66831;DHT22;53739;44.224;22.528;2023-03-05T00:06:04;179.60;6502.40
66831;DHT22;53739;44.224;22.528;2023-03-05T00:08:31;179.70;6502.40
66831;DHT22;53739;44.224;22.528;2023-03-05T00:11:05;179.80;6502.40
66831;DHT22;53739;44.224;22.528;2023-03-05T00:13:32;179.80;6502.40
66831;DHT22;53739;44.224;22.528;2023-03-05T00:15:57;179.90;6502.40
66831;DHT22;53739;44.224;22.528;2023-03-05T00:18:23;179.90;6502.40
66831;DHT22;53739;44.224;22.528;2023-03-05T00:20:49;179.90;6502.40
66831;DHT22;53739;44.224;22.528;2023-03-05T00:23:15;179.90;6502.40
66831;DHT22;53739;44.224;22.528;2023-03-05T00:25:41;179.90;6502.40
66831;DHT22;53739;44.224;22.528;2023-03-05T00:28:07;179.90;6502.40
66831;DHT22;53739;44.224;22.528;2023-03-05T00:30:34;179.90;6502.40
66831;DHT22;53739;44.224;22.528;2023-03-05T00:33:00;179.80;6502.40
66831;DHT22;53739;44.224;22.528;2023-03-05T00:35:26;179.80;6502.40
66831;DHT22;53739;44.224;22.528;2023-03-05T00:37:52;179.90;512.00
66831;DHT22;53739;44.224;22.528;2023-03-05T00:40:19;179.90;6502.40
66831;DHT22;53739;44.224;22.528;2023-03-05T00:42:44;179.90;6502.40
66831;DHT22;53739;44.224;22.528;2023-03-05T00:45:11;179.90;6502.40
66831;DHT22;53739;44.224;22.528;2023-03-05T00:47:37;179.90;6502.40
66831;DHT22;53739;44.224;22.528;2023-03-05T00:50:04;179.90;6502.40
66831;DHT22;53739;44.224;22.528;2023-03-05T00:52:30;180.00;6502.40
66831;DHT22;53739;44.224;22.528;2023-03-05T00:54:55;179.90;6502.40
66831;DHT22;53739;44.224;22.528;2023-03-05T00:57:21;179.90;6502.40
66831;DHT22;53739;44.224;22.528;2023-03-05T00:59:47;179.90;6502.40
66831;DHT22;53739;44.224;22.528;2023-03-05T01:02:13;179.90;6502.40
66831;DHT22;53739;44.224;22.528;2023-03-05T01:04:38;179.90;6502.40
66831;DHT22;53739;44.224;22.528;2023-03-05T01:07:04;179.90;6502.40
66831;DHT22;53739;44.224;22.528;2023-03-05T01:09:30;180.00;6502.40
66831;DHT22;53739;44.224;22.528;2023-03-05T01:11:56;179.90;6502.40
66831;DHT22;53739;44.224;22.528;2023-03-05T01:14:22;179.90;6502.40
66831;DHT22;53739;44.224;22.528;2023-03-05T01:16:48;179.90;358.40
66831;DHT22;53739;44.224;22.528;2023-03-05T01:19:15;179.90;6502.40
66831;DHT22;53739;44.224;22.528;2023-03-05T01:21:41;179.90;6502.40
66831;DHT22;53739;44.224;22.528;2023-03-05T01:24:07;179.90;153.60
66831;DHT22;53739;44.224;22.528;2023-03-05T01:26:33;179.90;6502.40
66831;DHT22;53739;44.224;22.528;2023-03-05T01:28:59;179.90;6502.40
66831;DHT22;53739;44.224;22.528;2023-03-05T01:31:25;179.90;6502.40
66831;DHT22;53739;44.224;22.528;2023-03-05T01:33:52;179.90;6502.40
66831;DHT22;53739;44.224;22.528;2023-03-05T01:36:18;179.90;6502.40
66831;DHT22;53739;44.224;22.528;2023-03-05T01:38:45;180.00;6502.40
66831;DHT22;53739;44.224;22.528;2023-03-05T01:41:14;179.90;6502.40
66831;DHT22;53739;44.224;22.528;2023-03-05T01:43:41;180.00;6502.40
66831;DHT22;53739;44.224;22.528;2023-03-05T01:46:29;179.90;6502.40
66831;DHT22;53739;44.224;22.528;2023-03-05T01:52:15;179.90;6502.40
66831;DHT22;53739;44.224;22.528;2023-03-05T01:57:26;179.90;6502.40
66831;DHT22;53739;44.224;22.528;2023-03-05T01:59:56;179.90;6502.40
66831;DHT22;53739;44.224;22.528;2023-03-05T02:02:25;179.90;6502.40
66831;DHT22;53739;44.224;22.528;2023-03-05T02:04:55;179.90;6502.40
66831;DHT22;53739;44.224;22.528;2023-03-05T02:07:22;179.90;6502.40
66831;DHT22;53739;44.224;22.528;2023-03-05T02:09:48;179.90;6502.40
66831;DHT22;53739;44.224;22.528;2023-03-05T02:12:15;179.80;6502.40
66831;DHT22;53739;44.224;22.528;2023-03-05T02:14:44;179.80;6502.40
66831;DHT22;53739;44.224;22.528;2023-03-05T02:17:12;179.80;6502.40
66831;DHT22;53739;44.224;22.528;2023-03-05T02:19:56;179.80;6502.40
66831;DHT22;53739;44.224;22.528;2023-03-05T02:22:27;179.70;6502.40
66831;DHT22;53739;44.224;22.528;2023-03-05T02:24:53;179.70;6502.40
66831;DHT22;53739;44.224;22.528;2023-03-05T02:27:22;179.70;6502.40
66831;DHT22;53739;44.224;22.528;2023-03-05T02:29:49;179.70;6502.40
66831;DHT22;53739;44.224;22.528;2023-03-05T02:32:16;179.70;6502.40
66831;DHT22;53739;44.224;22.528;2023-03-05T02:34:42;179.70;6502.40
66831;DHT22;53739;44.224;22.528;2023-03-05T02:37:08;179.70;6502.40
66831;DHT22;53739;44.224;22.528;2023-03-05T02:39:35;179.70;6502.40
66831;DHT22;53739;44.224;22.528;2023-03-05T02:42:01;179.70;6502.40
66831;DHT22;53739;44.224;22.528;2023-03-05T02:44:26;179.70;6502.40
66831;DHT22;53739;44.224;22.528;2023-03-05T02:46:52;179.80;6502.40
66831;DHT22;53739;44.224;22.528;2023-03-05T02:49:18;179.80;6502.40
66831;DHT22;53739;44.224;22.528;2023-03-05T02:51:44;179.80;6502.40
66831;DHT22;53739;44.224;22.528;2023-03-05T02:54:10;179.80;128.00
66831;DHT22;53739;44.224;22.528;2023-03-05T02:56:35;179.70;6502.40
66831;DHT22;53739;44.224;22.528;2023-03-05T02:59:03;179.70;128.00
66831;DHT22;53739;44.224;22.528;2023-03-05T03:01:29;179.70;512.00
66831;DHT22;53739;44.224;22.528;2023-03-05T03:03:55;179.70;6502.40
66831;DHT22;53739;44.224;22.528;2023-03-05T03:06:21;179.70;6502.40
66831;DHT22;53739;44.224;22.528;2023-03-05T03:08:46;179.70;6502.40
66831;DHT22;53739;44.224;22.528;2023-03-05T03:11:12;179.70;6502.40
66831;DHT22;53739;44.224;22.528;2023-03-05T03:13:39;179.70;6502.40
66831;DHT22;53739;44.224;22.528;2023-03-05T03:16:10;179.70;128.00
66831;DHT22;53739;44.224;22.528;2023-03-05T03:18:36;179.70;6502.40
66831;DHT22;53739;44.224;22.528;2023-03-05T03:21:02;179.70;6502.40
66831;DHT22;53739;44.224;22.528;2023-03-05T03:23:28;179.70;6502.40
66831;DHT22;53739;44.224;22.528;2023-03-05T03:25:54;179.70;6502.40
66831;DHT22;53739;44.224;22.528;2023-03-05T03:28:20;179.70;6502.40
66831;DHT22;53739;44.224;22.528;2023-03-05T03:30:46;179.70;6502.40
66831;DHT22;53739;44.224;22.528;2023-03-05T03:33:12;179.80;6502.40
66831;DHT22;53739;44.224;22.528;2023-03-05T03:35:37;179.70;6502.40
66831;DHT22;53739;44.224;22.528;2023-03-05T03:38:03;179.70;6502.40
66831;DHT22;53739;44.224;22.528;2023-03-05T03:40:30;179.70;6502.40
66831;DHT22;53739;44.224;22.528;2023-03-05T03:42:55;179.70;6502.40
66831;DHT22;53739;44.224;22.528;2023-03-05T03:45:21;179.70;6502.40
66831;DHT22;53739;44.224;22.528;2023-03-05T03:47:48;179.60;6502.40
66831;DHT22;53739;44.224;22.528;2023-03-05T03:50:14;179.60;6502.40
66831;DHT22;53739;44.224;22.528;2023-03-05T03:52:40;179.70;6502.40
66831;DHT22;53739;44.224;22.528;2023-03-05T03:55:06;179.60;6502.40
66831;DHT22;53739;44.224;22.528;2023-03-05T03:57:32;179.70;6502.40
66831;DHT22;53739;44.224;22.528;2023-03-05T03:59:59;179.60;6502.40
66831;DHT22;53739;44.224;22.528;2023-03-05T04:02:25;179.60;6502.40
66831;DHT22;53739;44.224;22.528;2023-03-05T04:04:51;179.60;281.60
66831;DHT22;53739;44.224;22.528;2023-03-05T04:07:18;179.60;6502.40
66831;DHT22;53739;44.224;22.528;2023-03-05T04:09:44;179.60;6502.40
66831;DHT22;53739;44.224;22.528;2023-03-05T04:12:09;179.60;6502.40
66831;DHT22;53739;44.224;22.528;2023-03-05T04:14:35;179.50;6502.40
66831;DHT22;53739;44.224;22.528;2023-03-05T04:17:01;179.50;6502.40
66831;DHT22;53739;44.224;22.528;2023-03-05T04:19:27;179.50;6502.40
66831;DHT22;53739;44.224;22.528;2023-03-05T04:21:56;179.60;6502.40
66831;DHT22;53739;44.224;22.528;2023-03-05T04:24:22;179.50;6502.40
66831;DHT22;53739;44.224;22.528;2023-03-05T04:26:47;179.50;6502.40
66831;DHT22;53739;44.224;22.528;2023-03-05T04:29:13;179.50;6502.40
66831;DHT22;53739;44.224;22.528;2023-03-05T04:31:39;179.50;6502.40
66831;DHT22;53739;44.224;22.528;2023-03-05T04:34:05;179.50;6502.40
66831;DHT22;53739;44.224;22.528;2023-03-05T04:36:31;179.60;6502.40
66831;DHT22;53739;44.224;22.528;2023-03-05T04:38:57;179.50;6502.40
66831;DHT22;53739;44.224;22.528;2023-03-05T04:41:22;179.50;6502.40
66831;DHT22;53739;44.224;22.528;2023-03-05T04:43:48;179.50;6502.40
66831;DHT22;53739;44.224;22.528;2023-03-05T04:46:14;179.50;6502.40
66831;DHT22;53739;44.224;22.528;2023-03-05T04:48:39;179.50;6502.40
66831;DHT22;53739;44.224;22.528;2023-03-05T04:51:06;179.50;563.20
66831;DHT22;53739;44.224;22.528;2023-03-05T04:53:31;179.50;6502.40
66831;DHT22;53739;44.224;22.528;2023-03-05T04:55:57;179.60;6502.40
66831;DHT22;53739;44.224;22.528;2023-03-05T04:58:26;179.50;6502.40
66831;DHT22;53739;44.224;22.528;2023-03-05T05:00:51;179.50;6502.40
66831;DHT22;53739;44.224;22.528;2023-03-05T05:03:17;179.50;6502.40
66831;DHT22;53739;44.224;22.528;2023-03-05T05:05:43;179.60;6502.40
66831;DHT22;53739;44.224;22.528;2023-03-05T05:08:09;179.60;6502.40
66831;DHT22;53739;44.224;22.528;2023-03-05T05:10:35;179.60;6502.40
66831;DHT22;53739;44.224;22.528;2023-03-05T05:13:04;179.60;6502.40
66831;DHT22;53739;44.224;22.528;2023-03-05T05:15:30;179.50;6502.40
66831;DHT22;53739;44.224;22.528;2023-03-05T05:17:57;179.60;6502.40
66831;DHT22;53739;44.224;22.528;2023-03-05T05:20:22;179.70;6502.40
66831;DHT22;53739;44.224;22.528;2023-03-05T05:22:48;179.60;6502.40
66831;DHT22;53739;44.224;22.528;2023-03-05T05:25:14;179.60;6502.40
66831;DHT22;53739;44.224;22.528;2023-03-05T05:27:40;179.60;6502.40
66831;DHT22;53739;44.224;22.528;2023-03-05T05:30:06;179.60;6502.40
66831;DHT22;53739;44.224;22.528;2023-03-05T05:32:32;179.60;6502.40
66831;DHT22;53739;44.224;22.528;2023-03-05T05:34:59;179.60;6502.40
66831;DHT22;53739;44.224;22.528;2023-03-05T05:37:25;179.60;6502.40
66831;DHT22;53739;44.224;22.528;2023-03-05T05:39:51;179.50;6502.40
66831;DHT22;53739;44.224;22.528;2023-03-05T05:42:21;179.50;6502.40
66831;DHT22;53739;44.224;22.528;2023-03-05T05:44:47;179.50;665.60
66831;DHT22;53739;44.224;22.528;2023-03-05T05:47:14;179.40;6502.40
66831;DHT22;53739;44.224;22.528;2023-03-05T05:49:40;179.40;2022.40
66831;DHT22;53739;44.224;22.528;2023-03-05T05:52:06;179.30;2252.80
66831;DHT22;53739;44.224;22.528;2023-03-05T05:54:32;179.20;2252.80
66831;DHT22;53739;44.224;22.528;2023-03-05T05:56:58;179.20;2252.80
66831;DHT22;53739;44.224;22.528;2023-03-05T05:59:25;154.50;2252.80
66831;DHT22;53739;44.224;22.528;2023-03-05T06:01:50;154.50;1868.80
66831;DHT22;53739;44.224;22.528;2023-03-05T06:04:16;154.50;2252.80
66831;DHT22;53739;44.224;22.528;2023-03-05T06:06:42;154.40;2252.80
66831;DHT22;53739;44.224;22.528;2023-03-05T06:09:07;154.40;2252.80
66831;DHT22;53739;44.224;22.528;2023-03-05T06:11:33;154.40;2252.80
66831;DHT22;53739;44.224;22.528;2023-03-05T06:13:59;154.40;2252.80
66831;DHT22;53739;44.224;22.528;2023-03-05T06:16:27;154.40;2252.80
66831;DHT22;53739;44.224;22.528;2023-03-05T06:18:53;154.40;2252.80
66831;DHT22;53739;44.224;22.528;2023-03-05T06:21:20;154.50;2252.80
66831;DHT22;53739;44.224;22.528;2023-03-05T06:23:46;154.50;2252.80
66831;DHT22;53739;44.224;22.528;2023-03-05T06:26:15;154.50;2252.80
66831;DHT22;53739;44.224;22.528;2023-03-05T06:28:41;179.20;2252.80
66831;DHT22;53739;44.224;22.528;2023-03-05T06:31:14;179.20;2252.80
66831;DHT22;53739;44.224;22.528;2023-03-05T06:33:40;179.30;2252.80
66831;DHT22;53739;44.224;22.528;2023-03-05T06:36:14;179.40;2252.80
66831;DHT22;53739;44.224;22.528;2023-03-05T06:38:40;179.50;2252.80
66831;DHT22;53739;44.224;22.528;2023-03-05T06:41:10;179.50;2252.80
66831;DHT22;53739;44.224;22.528;2023-03-05T06:43:37;179.60;2252.80
66831;DHT22;53739;44.224;22.528;2023-03-05T06:46:10;179.70;2252.80
66831;DHT22;53739;44.224;22.528;2023-03-05T06:48:36;179.80;2252.80
66831;DHT22;53739;44.224;22.528;2023-03-05T06:51:02;179.80;2252.80
66831;DHT22;53739;44.224;22.528;2023-03-05T06:53:28;179.80;2252.80
66831;DHT22;53739;44.224;22.528;2023-03-05T06:55:54;180.00;2252.80
66831;DHT22;53739;44.224;22.528;2023-03-05T06:58:20;180.10;2252.80
66831;DHT22;53739;44.224;22.528;2023-03-05T07:00:46;180.10;2252.80
66831;DHT22;53739;44.224;22.528;2023-03-05T07:03:12;204.90;2252.80
66831;DHT22;53739;44.224;22.528;2023-03-05T07:05:39;205.00;2252.80
66831;DHT22;53739;44.224;22.528;2023-03-05T07:08:05;205.20;2252.80
66831;DHT22;53739;44.224;22.528;2023-03-05T07:10:31;205.30;2252.80
66831;DHT22;53739;44.224;22.528;2023-03-05T07:12:56;205.50;2252.80
66831;DHT22;53739;44.224;22.528;2023-03-05T07:15:23;205.70;2252.80
66831;DHT22;53739;44.224;22.528;2023-03-05T07:17:50;230.50;2252.80
66831;DHT22;53739;44.224;22.528;2023-03-05T07:20:15;230.50;2252.80
66831;DHT22;53739;44.224;22.528;2023-03-05T07:25:07;230.80;2252.80
66831;DHT22;53739;44.224;22.528;2023-03-05T07:37:18;231.20;2252.80
66831;DHT22;53739;44.224;22.528;2023-03-05T07:39:44;231.20;2252.80
66831;DHT22;53739;44.224;22.528;2023-03-05T07:42:09;256.00;2252.80
66831;DHT22;53739;44.224;22.528;2023-03-05T07:44:35;231.20;2252.80
66831;DHT22;53739;44.224;22.528;2023-03-05T07:47:01;256.10;2252.80
66831;DHT22;53739;44.224;22.528;2023-03-05T07:49:26;256.20;2252.80
66831;DHT22;53739;44.224;22.528;2023-03-05T07:51:52;256.20;2252.80
66831;DHT22;53739;44.224;22.528;2023-03-05T07:54:18;256.10;2252.80
66831;DHT22;53739;44.224;22.528;2023-03-05T07:56:43;256.20;2252.80
66831;DHT22;53739;44.224;22.528;2023-03-05T07:59:10;256.40;2252.80
66831;DHT22;53739;44.224;22.528;2023-03-05T08:01:37;256.30;2252.80
66831;DHT22;53739;44.224;22.528;2023-03-05T08:04:04;256.70;2252.80
66831;DHT22;53739;44.224;22.528;2023-03-05T08:06:30;256.90;2252.80
66831;DHT22;53739;44.224;22.528;2023-03-05T08:08:57;256.90;2252.80
66831;DHT22;53739;44.224;22.528;2023-03-05T08:11:23;281.70;2278.40
66831;DHT22;53739;44.224;22.528;2023-03-05T08:13:48;281.60;2278.40
66831;DHT22;53739;44.224;22.528;2023-03-05T08:16:19;256.90;2252.80
66831;DHT22;53739;44.224;22.528;2023-03-05T08:18:46;281.70;2278.40
66831;DHT22;53739;44.224;22.528;2023-03-05T08:21:21;281.60;2278.40
66831;DHT22;53739;44.224;22.528;2023-03-05T08:23:47;256.90;2252.80
66831;DHT22;53739;44.224;22.528;2023-03-05T08:26:15;256.90;2252.80
66831;DHT22;53739;44.224;22.528;2023-03-05T08:28:40;281.60;2278.40
66831;DHT22;53739;44.224;22.528;2023-03-05T08:31:10;282.00;2278.40
66831;DHT22;53739;44.224;22.528;2023-03-05T08:33:36;282.30;2278.40
66831;DHT22;53739;44.224;22.528;2023-03-05T08:36:03;282.40;2278.40
66831;DHT22;53739;44.224;22.528;2023-03-05T08:38:29;282.30;2278.40
66831;DHT22;53739;44.224;22.528;2023-03-05T08:40:54;282.30;2278.40
66831;DHT22;53739;44.224;22.528;2023-03-05T08:43:20;282.50;2278.40
66831;DHT22;53739;44.224;22.528;2023-03-05T08:50:40;307.30;2304.00
66831;DHT22;53739;44.224;22.528;2023-03-05T08:53:05;282.50;2278.40
66831;DHT22;53739;44.224;22.528;2023-03-05T08:55:31;282.30;2278.40
66831;DHT22;53739;44.224;22.528;2023-03-05T08:57:57;307.40;2304.00
66831;DHT22;53739;44.224;22.528;2023-03-05T09:00:23;282.50;2278.40
66831;DHT22;53739;44.224;22.528;2023-03-05T09:02:48;282.50;2278.40
66831;DHT22;53739;44.224;22.528;2023-03-05T09:05:14;282.50;2278.40
66831;DHT22;53739;44.224;22.528;2023-03-05T09:07:40;282.50;2278.40
66831;DHT22;53739;44.224;22.528;2023-03-05T09:10:07;282.50;2278.40
66831;DHT22;53739;44.224;22.528;2023-03-05T09:12:36;282.50;2278.40
66831;DHT22;53739;44.224;22.528;2023-03-05T09:15:03;307.20;2304.00
66831;DHT22;53739;44.224;22.528;2023-03-05T09:17:29;307.30;2304.00
66831;DHT22;53739;44.224;22.528;2023-03-05T09:24:47;307.50;2304.00
66831;DHT22;53739;44.224;22.528;2023-03-05T09:27:12;307.80;2099.20
66831;DHT22;53739;44.224;22.528;2023-03-05T09:29:38;307.80;2227.20
66831;DHT22;53739;44.224;22.528;2023-03-05T09:32:04;308.00;2304.00
66831;DHT22;53739;44.224;22.528;2023-03-05T09:34:30;307.90;2176.00
66831;DHT22;53739;44.224;22.528;2023-03-05T09:36:56;307.80;2278.40
66831;DHT22;53739;44.224;22.528;2023-03-05T09:39:22;308.00;2304.00
66831;DHT22;53739;44.224;22.528;2023-03-05T09:44:36;333.10;2252.80
66831;DHT22;53739;44.224;22.528;2023-03-05T09:47:31;332.90;2329.60
66831;DHT22;53739;44.224;22.528;2023-03-05T09:52:54;332.90;2329.60
66831;DHT22;53739;44.224;22.528;2023-03-05T09:55:36;332.90;2329.60
66831;DHT22;53739;44.224;22.528;2023-03-05T10:01:17;332.90;2329.60
66831;DHT22;53739;44.224;22.528;2023-03-05T10:04:00;333.10;2329.60
66831;DHT22;53739;44.224;22.528;2023-03-05T10:06:38;333.10;2329.60
66831;DHT22;53739;44.224;22.528;2023-03-05T10:14:37;333.30;2329.60
66831;DHT22;53739;44.224;22.528;2023-03-05T10:17:18;333.40;2329.60
66831;DHT22;53739;44.224;22.528;2023-03-05T10:20:01;333.40;2329.60
66831;DHT22;53739;44.224;22.528;2023-03-05T10:28:03;333.10;2329.60
66831;DHT22;53739;44.224;22.528;2023-03-05T10:46:36;333.40;2329.60
66831;DHT22;53739;44.224;22.528;2023-03-05T10:49:11;333.60;2329.60
66831;DHT22;53739;44.224;22.528;2023-03-05T10:51:50;333.70;2329.60
66831;DHT22;53739;44.224;22.528;2023-03-05T10:57:20;358.50;2329.60
66831;DHT22;53739;44.224;22.528;2023-03-05T10:59:49;359.00;2329.60
66831;DHT22;53739;44.224;22.528;2023-03-05T11:02:15;358.70;2329.60
66831;DHT22;53739;44.224;22.528;2023-03-05T11:04:44;358.60;2329.60
66831;DHT22;53739;44.224;22.528;2023-03-05T11:09:41;333.70;2329.60
66831;DHT22;53739;44.224;22.528;2023-03-05T11:12:15;358.40;2329.60
66831;DHT22;53739;44.224;22.528;2023-03-05T11:14:46;358.50;2329.60
66831;DHT22;53739;44.224;22.528;2023-03-05T11:17:33;358.40;2329.60
66831;DHT22;53739;44.224;22.528;2023-03-05T11:28:36;358.40;2329.60
66831;DHT22;53739;44.224;22.528;2023-03-05T11:31:07;333.50;2329.60
66831;DHT22;53739;44.224;22.528;2023-03-05T11:36:57;333.70;2329.60
66831;DHT22;53739;44.224;22.528;2023-03-05T11:39:30;358.50;2329.60
66831;DHT22;53739;44.224;22.528;2023-03-05T11:42:22;333.70;2329.60
66831;DHT22;53739;44.224;22.528;2023-03-05T11:44:53;358.40;2329.60
66831;DHT22;53739;44.224;22.528;2023-03-05T11:47:41;333.60;2329.60
66831;DHT22;53739;44.224;22.528;2023-03-05T11:53:01;358.50;2329.60
66831;DHT22;53739;44.224;22.528;2023-03-05T12:00:53;333.40;2329.60
66831;DHT22;53739;44.224;22.528;2023-03-05T12:03:58;333.60;2329.60
66831;DHT22;53739;44.224;22.528;2023-03-05T12:10:22;358.60;2329.60
66831;DHT22;53739;44.224;22.528;2023-03-05T12:15:54;333.70;2329.60
66831;DHT22;53739;44.224;22.528;2023-03-05T12:18:38;358.60;2329.60
66831;DHT22;53739;44.224;22.528;2023-03-05T12:21:29;358.50;2329.60
66831;DHT22;53739;44.224;22.528;2023-03-05T12:23:54;358.60;2329.60
66831;DHT22;53739;44.224;22.528;2023-03-05T12:31:58;358.60;2329.60
66831;DHT22;53739;44.224;22.528;2023-03-05T12:47:40;333.40;2329.60
66831;DHT22;53739;44.224;22.528;2023-03-05T12:58:10;333.40;2329.60
66831;DHT22;53739;44.224;22.528;2023-03-05T13:00:44;333.40;2329.60
66831;DHT22;53739;44.224;22.528;2023-03-05T13:07:05;333.10;2329.60
66831;DHT22;53739;44.224;22.528;2023-03-05T13:23:37;332.90;2329.60
66831;DHT22;53739;44.224;22.528;2023-03-05T13:27:02;332.80;2329.60
66831;DHT22;53739;44.224;22.528;2023-03-05T13:30:20;308.10;2304.00
66831;DHT22;53739;44.224;22.528;2023-03-05T13:36:29;307.90;2304.00
66831;DHT22;53739;44.224;22.528;2023-03-05T13:45:01;307.60;2304.00
66831;DHT22;53739;44.224;22.528;2023-03-05T13:47:31;307.60;2304.00
66831;DHT22;53739;44.224;22.528;2023-03-05T13:50:00;307.50;2304.00
66831;DHT22;53739;44.224;22.528;2023-03-05T13:52:33;307.40;2304.00
66831;DHT22;53739;44.224;22.528;2023-03-05T13:55:00;307.40;2304.00
66831;DHT22;53739;44.224;22.528;2023-03-05T14:00:22;282.50;2278.40
66831;DHT22;53739;44.224;22.528;2023-03-05T14:02:47;282.50;2278.40
66831;DHT22;53739;44.224;22.528;2023-03-05T14:05:19;282.50;2278.40
66831;DHT22;53739;44.224;22.528;2023-03-05T14:07:50;282.50;2278.40
66831;DHT22;53739;44.224;22.528;2023-03-05T14:10:42;282.30;2278.40
66831;DHT22;53739;44.224;22.528;2023-03-05T14:13:13;282.40;2278.40
66831;DHT22;53739;44.224;22.528;2023-03-05T14:16:21;282.40;2278.40
66831;DHT22;53739;44.224;22.528;2023-03-05T14:18:55;282.20;2278.40
66831;DHT22;53739;44.224;22.528;2023-03-05T14:21:22;282.20;2278.40
66831;DHT22;53739;44.224;22.528;2023-03-05T14:23:50;282.30;2278.40
66831;DHT22;53739;44.224;22.528;2023-03-05T14:29:12;282.00;2278.40
66831;DHT22;53739;44.224;22.528;2023-03-05T14:32:06;281.90;2278.40
66831;DHT22;53739;44.224;22.528;2023-03-05T14:34:37;281.80;2278.40
66831;DHT22;53739;44.224;22.528;2023-03-05T14:37:17;281.60;2278.40
66831;DHT22;53739;44.224;22.528;2023-03-05T14:39:57;256.90;2252.80
66831;DHT22;53739;44.224;22.528;2023-03-05T14:42:34;256.70;2252.80
66831;DHT22;53739;44.224;22.528;2023-03-05T14:45:12;256.60;2252.80
66831;DHT22;53739;44.224;22.528;2023-03-05T14:47:38;256.30;2252.80
66831;DHT22;53739;44.224;22.528;2023-03-05T14:50:06;256.30;2252.80
66831;DHT22;53739;44.224;22.528;2023-03-05T14:52:32;256.30;2252.80
66831;DHT22;53739;44.224;22.528;2023-03-05T14:54:58;256.30;2252.80
66831;DHT22;53739;44.224;22.528;2023-03-05T14:57:26;256.40;2252.80
66831;DHT22;53739;44.224;22.528;2023-03-05T14:59:53;256.40;2252.80
66831;DHT22;53739;44.224;22.528;2023-03-05T15:02:22;256.50;2252.80
66831;DHT22;53739;44.224;22.528;2023-03-05T15:04:48;256.50;2252.80
66831;DHT22;53739;44.224;22.528;2023-03-05T15:07:30;256.50;2252.80
66831;DHT22;53739;44.224;22.528;2023-03-05T15:10:02;256.50;2252.80
66831;DHT22;53739;44.224;22.528;2023-03-05T15:12:28;256.50;2252.80
66831;DHT22;53739;44.224;22.528;2023-03-05T15:14:54;256.50;2252.80
66831;DHT22;53739;44.224;22.528;2023-03-05T15:17:30;256.40;2252.80
66831;DHT22;53739;44.224;22.528;2023-03-05T15:19:57;256.40;2252.80
66831;DHT22;53739;44.224;22.528;2023-03-05T15:22:23;256.30;2252.80
66831;DHT22;53739;44.224;22.528;2023-03-05T15:24:49;256.30;2252.80
66831;DHT22;53739;44.224;22.528;2023-03-05T15:27:15;256.30;2252.80
66831;DHT22;53739;44.224;22.528;2023-03-05T15:29:40;256.00;2252.80
66831;DHT22;53739;44.224;22.528;2023-03-05T15:32:06;256.00;2252.80
66831;DHT22;53739;44.224;22.528;2023-03-05T15:34:33;231.30;2252.80
66831;DHT22;53739;44.224;22.528;2023-03-05T15:37:00;231.30;2252.80
66831;DHT22;53739;44.224;22.528;2023-03-05T15:39:26;231.30;2252.80
66831;DHT22;53739;44.224;22.528;2023-03-05T15:41:52;231.20;2252.80
66831;DHT22;53739;44.224;22.528;2023-03-05T15:44:19;231.10;2252.80
66831;DHT22;53739;44.224;22.528;2023-03-05T15:46:45;231.00;2252.80
66831;DHT22;53739;44.224;22.528;2023-03-05T15:49:12;231.00;2252.80
66831;DHT22;53739;44.224;22.528;2023-03-05T15:51:37;231.00;2252.80
66831;DHT22;53739;44.224;22.528;2023-03-05T15:54:06;231.00;2252.80
66831;DHT22;53739;44.224;22.528;2023-03-05T15:56:32;231.00;2252.80
66831;DHT22;53739;44.224;22.528;2023-03-05T15:58:57;231.00;2252.80
66831;DHT22;53739;44.224;22.528;2023-03-05T16:01:23;230.90;2252.80
66831;DHT22;53739;44.224;22.528;2023-03-05T16:03:50;230.90;2252.80
66831;DHT22;53739;44.224;22.528;2023-03-05T16:06:17;230.90;2252.80
66831;DHT22;53739;44.224;22.528;2023-03-05T16:08:47;230.80;2252.80
66831;DHT22;53739;44.224;22.528;2023-03-05T16:11:14;230.80;2252.80
66831;DHT22;53739;44.224;22.528;2023-03-05T16:13:40;230.80;2252.80
66831;DHT22;53739;44.224;22.528;2023-03-05T16:16:07;230.60;2252.80
66831;DHT22;53739;44.224;22.528;2023-03-05T16:18:38;230.60;2252.80
66831;DHT22;53739;44.224;22.528;2023-03-05T16:21:04;230.60;2252.80
66831;DHT22;53739;44.224;22.528;2023-03-05T16:23:30;230.50;2252.80
66831;DHT22;53739;44.224;22.528;2023-03-05T16:25:56;230.40;2252.80
66831;DHT22;53739;44.224;22.528;2023-03-05T16:28:22;230.40;2252.80
66831;DHT22;53739;44.224;22.528;2023-03-05T16:30:55;205.70;2252.80
66831;DHT22;53739;44.224;22.528;2023-03-05T16:33:22;205.60;2252.80
66831;DHT22;53739;44.224;22.528;2023-03-05T16:35:48;205.60;2252.80
66831;DHT22;53739;44.224;22.528;2023-03-05T16:38:14;205.50;2252.80
66831;DHT22;53739;44.224;22.528;2023-03-05T16:40:40;205.50;2252.80
66831;DHT22;53739;44.224;22.528;2023-03-05T16:43:06;205.40;2252.80
66831;DHT22;53739;44.224;22.528;2023-03-05T16:45:32;205.40;2252.80
66831;DHT22;53739;44.224;22.528;2023-03-05T16:47:58;205.30;2252.80
66831;DHT22;53739;44.224;22.528;2023-03-05T16:50:24;205.30;2252.80
66831;DHT22;53739;44.224;22.528;2023-03-05T16:52:49;205.30;2252.80
66831;DHT22;53739;44.224;22.528;2023-03-05T16:55:15;205.20;2252.80
66831;DHT22;53739;44.224;22.528;2023-03-05T16:57:41;205.20;2252.80
66831;DHT22;53739;44.224;22.528;2023-03-05T17:00:08;205.10;2252.80
66831;DHT22;53739;44.224;22.528;2023-03-05T17:02:36;205.10;2252.80
66831;DHT22;53739;44.224;22.528;2023-03-05T17:05:02;205.10;2252.80
66831;DHT22;53739;44.224;22.528;2023-03-05T17:07:28;205.00;2252.80
66831;DHT22;53739;44.224;22.528;2023-03-05T17:09:54;205.00;2252.80
66831;DHT22;53739;44.224;22.528;2023-03-05T17:12:21;204.90;2252.80
66831;DHT22;53739;44.224;22.528;2023-03-05T17:14:47;204.90;2252.80
66831;DHT22;53739;44.224;22.528;2023-03-05T17:17:13;204.90;2252.80
66831;DHT22;53739;44.224;22.528;2023-03-05T17:19:38;204.80;2252.80